sensor_id;sensor_type;location;lat;lon;timestamp;temperature;humidity
5226;DHT22;2632;51.666;7.146;2023-04-24T00:00:47;11.80;99.90
5226;DHT22;2632;51.666;7.146;2023-04-24T00:03:13;11.80;99.90
5226;DHT22;2632;51.666;7.146;2023-04-24T00:05:40;11.80;99.90
5226;DHT22;2632;51.666;7.146;2023-04-24T00:08:07;11.80;99.90
5226;DHT22;2632;51.666;7.146;2023-04-24T00:10:34;11.90;99.90
5226;DHT22;2632;51.666;7.146;2023-04-24T00:13:01;11.90;99.90
5226;DHT22;2632;51.666;7.146;2023-04-24T00:15:27;11.90;99.90
5226;DHT22;2632;51.666;7.146;2023-04-24T00:17:54;11.90;99.90
5226;DHT22;2632;51.666;7.146;2023-04-24T00:20:21;11.80;99.90
5226;DHT22;2632;51.666;7.146;2023-04-24T00:22:48;11.90;99.90
5226;DHT22;2632;51.666;7.146;2023-04-24T00:25:15;11.90;99.90
5226;DHT22;2632;51.666;7.146;2023-04-24T00:27:42;11.80;99.90
5226;DHT22;2632;51.666;7.146;2023-04-24T00:30:09;11.80;99.90
5226;DHT22;2632;51.666;7.146;2023-04-24T00:32:35;11.80;99.90
5226;DHT22;2632;51.666;7.146;2023-04-24T00:35:02;11.90;99.90
5226;DHT22;2632;51.666;7.146;2023-04-24T00:37:29;11.90;99.90
5226;DHT22;2632;51.666;7.146;2023-04-24T00:39:56;11.80;99.90
5226;DHT22;2632;51.666;7.146;2023-04-24T00:42:22;11.80;99.90
5226;DHT22;2632;51.666;7.146;2023-04-24T00:44:49;11.90;99.90
5226;DHT22;2632;51.666;7.146;2023-04-24T00:47:19;11.90;99.90
5226;DHT22;2632;51.666;7.146;2023-04-24T00:49:46;11.80;99.90
5226;DHT22;2632;51.666;7.146;2023-04-24T00:52:13;11.90;99.90
5226;DHT22;2632;51.666;7.146;2023-04-24T00:54:44;11.80;99.90
5226;DHT22;2632;51.666;7.146;2023-04-24T00:57:13;11.70;99.90
5226;DHT22;2632;51.666;7.146;2023-04-24T00:59:42;11.80;99.90
5226;DHT22;2632;51.666;7.146;2023-04-24T01:02:10;11.80;99.90
5226;DHT22;2632;51.666;7.146;2023-04-24T01:04:37;11.90;99.90
5226;DHT22;2632;51.666;7.146;2023-04-24T01:07:04;11.90;99.90
5226;DHT22;2632;51.666;7.146;2023-04-24T01:09:40;11.90;99.90
5226;DHT22;2632;51.666;7.146;2023-04-24T01:12:10;11.70;99.90
5226;DHT22;2632;51.666;7.146;2023-04-24T01:14:37;11.80;99.90
5226;DHT22;2632;51.666;7.146;2023-04-24T01:17:04;11.80;99.90
5226;DHT22;2632;51.666;7.146;2023-04-24T01:19:32;11.70;99.90
5226;DHT22;2632;51.666;7.146;2023-04-24T01:22:02;11.70;99.90
5226;DHT22;2632;51.666;7.146;2023-04-24T01:24:29;11.70;99.90
5226;DHT22;2632;51.666;7.146;2023-04-24T01:26:56;11.60;99.90
5226;DHT22;2632;51.666;7.146;2023-04-24T01:29:23;11.60;99.90
5226;DHT22;2632;51.666;7.146;2023-04-24T01:31:50;11.70;99.90
5226;DHT22;2632;51.666;7.146;2023-04-24T01:34:17;11.60;99.90
5226;DHT22;2632;51.666;7.146;2023-04-24T01:36:46;11.60;99.90
5226;DHT22;2632;51.666;7.146;2023-04-24T01:39:13;11.60;99.90
5226;DHT22;2632;51.666;7.146;2023-04-24T01:41:40;11.60;99.90
5226;DHT22;2632;51.666;7.146;2023-04-24T01:44:06;11.60;99.90
5226;DHT22;2632;51.666;7.146;2023-04-24T01:46:33;11.60;99.90
5226;DHT22;2632;51.666;7.146;2023-04-24T01:49:02;11.50;99.90
5226;DHT22;2632;51.666;7.146;2023-04-24T01:51:28;11.50;99.90
5226;DHT22;2632;51.666;7.146;2023-04-24T01:53:56;11.30;99.90
5226;DHT22;2632;51.666;7.146;2023-04-24T01:56:23;11.40;99.90
5226;DHT22;2632;51.666;7.146;2023-04-24T01:58:52;11.40;99.90
5226;DHT22;2632;51.666;7.146;2023-04-24T02:01:19;11.30;99.90
5226;DHT22;2632;51.666;7.146;2023-04-24T02:03:47;11.30;99.90
5226;DHT22;2632;51.666;7.146;2023-04-24T02:06:14;11.10;99.90
5226;DHT22;2632;51.666;7.146;2023-04-24T02:08:41;11.10;99.90
5226;DHT22;2632;51.666;7.146;2023-04-24T02:11:10;11.10;99.90
5226;DHT22;2632;51.666;7.146;2023-04-24T02:13:37;11.10;99.90
5226;DHT22;2632;51.666;7.146;2023-04-24T02:16:04;11.10;99.90
5226;DHT22;2632;51.666;7.146;2023-04-24T02:18:30;11.00;99.90
5226;DHT22;2632;51.666;7.146;2023-04-24T02:20:57;10.90;99.90
5226;DHT22;2632;51.666;7.146;2023-04-24T02:23:24;11.00;99.90
5226;DHT22;2632;51.666;7.146;2023-04-24T02:25:50;11.00;99.90
5226;DHT22;2632;51.666;7.146;2023-04-24T02:28:19;11.00;99.90
5226;DHT22;2632;51.666;7.146;2023-04-24T02:30:46;11.00;99.90
5226;DHT22;2632;51.666;7.146;2023-04-24T02:33:12;11.00;99.90
5226;DHT22;2632;51.666;7.146;2023-04-24T02:35:39;11.00;99.90
5226;DHT22;2632;51.666;7.146;2023-04-24T02:38:06;10.90;99.90
5226;DHT22;2632;51.666;7.146;2023-04-24T02:40:32;10.90;99.90
5226;DHT22;2632;51.666;7.146;2023-04-24T02:42:59;10.90;99.90
5226;DHT22;2632;51.666;7.146;2023-04-24T02:45:26;10.80;99.90
5226;DHT22;2632;51.666;7.146;2023-04-24T02:47:52;10.90;99.90
5226;DHT22;2632;51.666;7.146;2023-04-24T02:50:19;10.80;99.90
5226;DHT22;2632;51.666;7.146;2023-04-24T02:52:46;10.80;99.90
5226;DHT22;2632;51.666;7.146;2023-04-24T02:55:12;10.90;99.90
5226;DHT22;2632;51.666;7.146;2023-04-24T02:57:39;10.80;99.90
5226;DHT22;2632;51.666;7.146;2023-04-24T03:00:07;10.80;99.90
5226;DHT22;2632;51.666;7.146;2023-04-24T03:02:35;10.80;99.90
5226;DHT22;2632;51.666;7.146;2023-04-24T03:05:02;10.80;99.90
5226;DHT22;2632;51.666;7.146;2023-04-24T03:07:29;10.80;99.90
5226;DHT22;2632;51.666;7.146;2023-04-24T03:09:57;10.80;99.90
5226;DHT22;2632;51.666;7.146;2023-04-24T03:12:24;10.80;99.90
5226;DHT22;2632;51.666;7.146;2023-04-24T03:14:51;10.80;99.90
5226;DHT22;2632;51.666;7.146;2023-04-24T03:17:18;10.80;99.90
5226;DHT22;2632;51.666;7.146;2023-04-24T03:19:44;10.70;99.90
5226;DHT22;2632;51.666;7.146;2023-04-24T03:22:11;10.70;99.90
5226;DHT22;2632;51.666;7.146;2023-04-24T03:24:38;10.70;99.90
5226;DHT22;2632;51.666;7.146;2023-04-24T03:27:05;10.70;99.90
5226;DHT22;2632;51.666;7.146;2023-04-24T03:29:31;10.70;99.90
5226;DHT22;2632;51.666;7.146;2023-04-24T03:31:58;10.70;99.90
5226;DHT22;2632;51.666;7.146;2023-04-24T03:34:25;10.70;99.90
5226;DHT22;2632;51.666;7.146;2023-04-24T03:36:51;10.70;99.90
5226;DHT22;2632;51.666;7.146;2023-04-24T03:39:19;10.70;99.90
5226;DHT22;2632;51.666;7.146;2023-04-24T03:41:45;10.70;99.90
5226;DHT22;2632;51.666;7.146;2023-04-24T03:44:12;10.60;99.90
5226;DHT22;2632;51.666;7.146;2023-04-24T03:46:38;10.70;99.90
5226;DHT22;2632;51.666;7.146;2023-04-24T03:49:05;10.60;99.90
5226;DHT22;2632;51.666;7.146;2023-04-24T03:51:32;10.60;99.90
5226;DHT22;2632;51.666;7.146;2023-04-24T03:53:58;10.70;99.90
5226;DHT22;2632;51.666;7.146;2023-04-24T03:56:25;10.60;99.90
5226;DHT22;2632;51.666;7.146;2023-04-24T03:58:52;10.60;99.90
5226;DHT22;2632;51.666;7.146;2023-04-24T04:01:18;10.60;99.90
5226;DHT22;2632;51.666;7.146;2023-04-24T04:03:47;10.60;99.90
5226;DHT22;2632;51.666;7.146;2023-04-24T04:06:14;10.60;99.90
5226;DHT22;2632;51.666;7.146;2023-04-24T04:08:41;10.60;99.90
5226;DHT22;2632;51.666;7.146;2023-04-24T04:11:07;10.60;99.90
5226;DHT22;2632;51.666;7.146;2023-04-24T04:13:34;10.60;99.90
5226;DHT22;2632;51.666;7.146;2023-04-24T04:16:00;10.70;99.90
5226;DHT22;2632;51.666;7.146;2023-04-24T04:18:27;10.70;99.90
5226;DHT22;2632;51.666;7.146;2023-04-24T04:20:54;10.70;99.90
5226;DHT22;2632;51.666;7.146;2023-04-24T04:23:20;10.70;99.90
5226;DHT22;2632;51.666;7.146;2023-04-24T04:25:47;10.60;99.90
5226;DHT22;2632;51.666;7.146;2023-04-24T04:28:13;10.50;99.90
5226;DHT22;2632;51.666;7.146;2023-04-24T04:30:40;10.60;99.90
5226;DHT22;2632;51.666;7.146;2023-04-24T04:33:07;10.60;99.90
5226;DHT22;2632;51.666;7.146;2023-04-24T04:35:34;10.60;99.90
5226;DHT22;2632;51.666;7.146;2023-04-24T04:38:01;10.60;99.90
5226;DHT22;2632;51.666;7.146;2023-04-24T04:40:28;10.60;99.90
5226;DHT22;2632;51.666;7.146;2023-04-24T04:42:56;10.60;99.90
5226;DHT22;2632;51.666;7.146;2023-04-24T04:45:23;10.70;99.90
5226;DHT22;2632;51.666;7.146;2023-04-24T04:47:50;10.60;99.90
5226;DHT22;2632;51.666;7.146;2023-04-24T04:50:17;10.50;99.90
5226;DHT22;2632;51.666;7.146;2023-04-24T04:52:45;11.40;99.90
5226;DHT22;2632;51.666;7.146;2023-04-24T04:55:12;10.70;99.90
5226;DHT22;2632;51.666;7.146;2023-04-24T04:57:39;10.60;99.90
5226;DHT22;2632;51.666;7.146;2023-04-24T05:00:06;10.70;99.90
5226;DHT22;2632;51.666;7.146;2023-04-24T05:02:34;10.70;99.90
5226;DHT22;2632;51.666;7.146;2023-04-24T05:05:00;10.70;99.90
5226;DHT22;2632;51.666;7.146;2023-04-24T05:07:27;10.60;99.90
5226;DHT22;2632;51.666;7.146;2023-04-24T05:09:54;10.70;99.90
5226;DHT22;2632;51.666;7.146;2023-04-24T05:12:21;10.70;99.90
5226;DHT22;2632;51.666;7.146;2023-04-24T05:14:47;10.70;99.90
5226;DHT22;2632;51.666;7.146;2023-04-24T05:17:14;10.70;99.90
5226;DHT22;2632;51.666;7.146;2023-04-24T05:19:41;10.80;99.90
5226;DHT22;2632;51.666;7.146;2023-04-24T05:22:08;10.80;99.90
5226;DHT22;2632;51.666;7.146;2023-04-24T05:24:36;11.00;99.90
5226;DHT22;2632;51.666;7.146;2023-04-24T05:27:04;11.10;99.90
5226;DHT22;2632;51.666;7.146;2023-04-24T05:29:31;10.90;99.90
5226;DHT22;2632;51.666;7.146;2023-04-24T05:32:00;11.00;99.90
5226;DHT22;2632;51.666;7.146;2023-04-24T05:34:27;11.00;99.90
5226;DHT22;2632;51.666;7.146;2023-04-24T05:36:53;11.00;99.90
5226;DHT22;2632;51.666;7.146;2023-04-24T05:39:20;10.90;99.90
5226;DHT22;2632;51.666;7.146;2023-04-24T05:41:46;10.90;99.90
5226;DHT22;2632;51.666;7.146;2023-04-24T05:44:13;10.70;99.90
5226;DHT22;2632;51.666;7.146;2023-04-24T05:46:40;10.90;99.90
5226;DHT22;2632;51.666;7.146;2023-04-24T05:49:06;10.90;99.90
5226;DHT22;2632;51.666;7.146;2023-04-24T05:51:33;10.90;99.90
5226;DHT22;2632;51.666;7.146;2023-04-24T05:54:00;10.80;99.90
5226;DHT22;2632;51.666;7.146;2023-04-24T05:56:27;10.80;99.90
5226;DHT22;2632;51.666;7.146;2023-04-24T05:58:54;10.70;99.90
5226;DHT22;2632;51.666;7.146;2023-04-24T06:01:20;10.70;99.90
5226;DHT22;2632;51.666;7.146;2023-04-24T06:03:47;10.60;99.90
5226;DHT22;2632;51.666;7.146;2023-04-24T06:06:14;10.60;99.90
5226;DHT22;2632;51.666;7.146;2023-04-24T06:08:42;10.50;99.90
5226;DHT22;2632;51.666;7.146;2023-04-24T06:11:10;10.50;99.90
5226;DHT22;2632;51.666;7.146;2023-04-24T06:13:37;10.40;99.90
5226;DHT22;2632;51.666;7.146;2023-04-24T06:16:04;10.40;99.90
5226;DHT22;2632;51.666;7.146;2023-04-24T06:18:30;10.40;99.90
5226;DHT22;2632;51.666;7.146;2023-04-24T06:20:57;10.40;99.90
5226;DHT22;2632;51.666;7.146;2023-04-24T06:23:24;10.50;99.90
5226;DHT22;2632;51.666;7.146;2023-04-24T06:25:51;10.50;99.90
5226;DHT22;2632;51.666;7.146;2023-04-24T06:28:17;10.50;99.90
5226;DHT22;2632;51.666;7.146;2023-04-24T06:30:44;10.50;99.90
5226;DHT22;2632;51.666;7.146;2023-04-24T06:33:11;10.50;99.90
5226;DHT22;2632;51.666;7.146;2023-04-24T06:35:46;10.60;99.90
5226;DHT22;2632;51.666;7.146;2023-04-24T06:38:13;10.50;99.90
5226;DHT22;2632;51.666;7.146;2023-04-24T06:40:39;10.50;99.90
5226;DHT22;2632;51.666;7.146;2023-04-24T06:43:06;10.60;99.90
5226;DHT22;2632;51.666;7.146;2023-04-24T06:45:33;10.70;99.90
5226;DHT22;2632;51.666;7.146;2023-04-24T06:48:00;10.70;99.90
5226;DHT22;2632;51.666;7.146;2023-04-24T06:50:26;10.80;99.90
5226;DHT22;2632;51.666;7.146;2023-04-24T06:52:53;10.70;99.90
5226;DHT22;2632;51.666;7.146;2023-04-24T06:55:19;10.60;99.90
5226;DHT22;2632;51.666;7.146;2023-04-24T06:57:46;10.50;99.90
5226;DHT22;2632;51.666;7.146;2023-04-24T07:00:13;10.50;99.90
5226;DHT22;2632;51.666;7.146;2023-04-24T07:02:40;10.40;99.90
5226;DHT22;2632;51.666;7.146;2023-04-24T07:05:07;10.30;99.90
5226;DHT22;2632;51.666;7.146;2023-04-24T07:07:34;10.40;99.90
5226;DHT22;2632;51.666;7.146;2023-04-24T07:10:05;10.50;99.90
5226;DHT22;2632;51.666;7.146;2023-04-24T07:12:31;10.70;99.90
5226;DHT22;2632;51.666;7.146;2023-04-24T07:15:00;10.80;99.90
5226;DHT22;2632;51.666;7.146;2023-04-24T07:17:26;10.90;99.90
5226;DHT22;2632;51.666;7.146;2023-04-24T07:19:53;10.90;99.90
5226;DHT22;2632;51.666;7.146;2023-04-24T07:22:20;10.90;99.90
5226;DHT22;2632;51.666;7.146;2023-04-24T07:24:46;10.90;99.90
5226;DHT22;2632;51.666;7.146;2023-04-24T07:27:13;10.90;99.90
5226;DHT22;2632;51.666;7.146;2023-04-24T07:29:41;10.90;99.90
5226;DHT22;2632;51.666;7.146;2023-04-24T07:32:08;10.80;99.90
5226;DHT22;2632;51.666;7.146;2023-04-24T07:34:35;10.80;99.90
5226;DHT22;2632;51.666;7.146;2023-04-24T07:37:02;10.70;99.90
5226;DHT22;2632;51.666;7.146;2023-04-24T07:39:29;10.70;99.90
5226;DHT22;2632;51.666;7.146;2023-04-24T07:41:56;10.60;99.90
5226;DHT22;2632;51.666;7.146;2023-04-24T07:44:23;10.50;99.90
5226;DHT22;2632;51.666;7.146;2023-04-24T07:46:49;10.50;99.90
5226;DHT22;2632;51.666;7.146;2023-04-24T07:49:16;10.50;99.90
5226;DHT22;2632;51.666;7.146;2023-04-24T07:51:45;10.50;99.90
5226;DHT22;2632;51.666;7.146;2023-04-24T07:54:12;10.50;99.90
5226;DHT22;2632;51.666;7.146;2023-04-24T07:56:40;10.60;99.90
5226;DHT22;2632;51.666;7.146;2023-04-24T07:59:07;10.60;99.90
5226;DHT22;2632;51.666;7.146;2023-04-24T08:01:36;10.50;99.90
5226;DHT22;2632;51.666;7.146;2023-04-24T08:04:02;10.50;99.90
5226;DHT22;2632;51.666;7.146;2023-04-24T08:06:30;10.50;99.90
5226;DHT22;2632;51.666;7.146;2023-04-24T08:08:57;10.70;99.90
5226;DHT22;2632;51.666;7.146;2023-04-24T08:11:25;10.90;99.90
5226;DHT22;2632;51.666;7.146;2023-04-24T08:13:52;11.10;99.90
5226;DHT22;2632;51.666;7.146;2023-04-24T08:16:18;11.10;99.90
5226;DHT22;2632;51.666;7.146;2023-04-24T08:18:45;11.10;99.90
5226;DHT22;2632;51.666;7.146;2023-04-24T08:21:12;10.90;99.90
5226;DHT22;2632;51.666;7.146;2023-04-24T08:23:43;10.80;99.90
5226;DHT22;2632;51.666;7.146;2023-04-24T08:26:10;10.70;99.90
5226;DHT22;2632;51.666;7.146;2023-04-24T08:28:37;10.70;99.90
5226;DHT22;2632;51.666;7.146;2023-04-24T08:31:04;10.60;99.90
5226;DHT22;2632;51.666;7.146;2023-04-24T08:33:31;10.70;99.90
5226;DHT22;2632;51.666;7.146;2023-04-24T08:36:04;10.70;99.90
5226;DHT22;2632;51.666;7.146;2023-04-24T08:38:32;10.70;99.90
5226;DHT22;2632;51.666;7.146;2023-04-24T08:41:00;10.80;99.90
5226;DHT22;2632;51.666;7.146;2023-04-24T08:43:27;10.90;99.90
5226;DHT22;2632;51.666;7.146;2023-04-24T08:45:56;10.90;99.90
5226;DHT22;2632;51.666;7.146;2023-04-24T08:48:23;10.90;99.90
5226;DHT22;2632;51.666;7.146;2023-04-24T08:50:58;11.00;99.90
5226;DHT22;2632;51.666;7.146;2023-04-24T08:53:26;10.70;99.90
5226;DHT22;2632;51.666;7.146;2023-04-24T08:55:54;10.70;99.90
5226;DHT22;2632;51.666;7.146;2023-04-24T08:58:24;10.90;99.90
5226;DHT22;2632;51.666;7.146;2023-04-24T09:00:51;10.90;99.90
5226;DHT22;2632;51.666;7.146;2023-04-24T09:03:20;10.80;99.90
5226;DHT22;2632;51.666;7.146;2023-04-24T09:05:48;10.60;99.90
5226;DHT22;2632;51.666;7.146;2023-04-24T09:08:18;10.40;99.90
5226;DHT22;2632;51.666;7.146;2023-04-24T09:10:45;10.50;99.90
5226;DHT22;2632;51.666;7.146;2023-04-24T09:13:14;10.70;99.90
5226;DHT22;2632;51.666;7.146;2023-04-24T09:15:42;10.90;99.90
5226;DHT22;2632;51.666;7.146;2023-04-24T09:18:09;10.80;99.90
5226;DHT22;2632;51.666;7.146;2023-04-24T09:23:30;10.70;99.90
5226;DHT22;2632;51.666;7.146;2023-04-24T09:25:58;10.50;99.90
5226;DHT22;2632;51.666;7.146;2023-04-24T09:28:35;10.60;99.90
5226;DHT22;2632;51.666;7.146;2023-04-24T09:31:04;10.80;99.90
5226;DHT22;2632;51.666;7.146;2023-04-24T09:33:30;10.80;99.90
5226;DHT22;2632;51.666;7.146;2023-04-24T09:35:57;10.90;99.90
5226;DHT22;2632;51.666;7.146;2023-04-24T09:38:36;10.80;99.90
5226;DHT22;2632;51.666;7.146;2023-04-24T09:41:05;10.70;99.90
5226;DHT22;2632;51.666;7.146;2023-04-24T09:43:32;10.70;99.90
5226;DHT22;2632;51.666;7.146;2023-04-24T09:46:03;10.70;99.90
5226;DHT22;2632;51.666;7.146;2023-04-24T09:48:32;10.60;99.90
5226;DHT22;2632;51.666;7.146;2023-04-24T09:51:00;10.50;99.90
5226;DHT22;2632;51.666;7.146;2023-04-24T09:53:29;10.40;99.90
5226;DHT22;2632;51.666;7.146;2023-04-24T09:56:01;10.30;99.90
5226;DHT22;2632;51.666;7.146;2023-04-24T09:58:29;10.30;99.90
5226;DHT22;2632;51.666;7.146;2023-04-24T10:00:56;10.30;99.90
5226;DHT22;2632;51.666;7.146;2023-04-24T10:03:29;10.40;99.90
5226;DHT22;2632;51.666;7.146;2023-04-24T10:06:00;10.40;99.90
5226;DHT22;2632;51.666;7.146;2023-04-24T10:08:33;10.20;99.90
5226;DHT22;2632;51.666;7.146;2023-04-24T10:11:01;10.20;99.90
5226;DHT22;2632;51.666;7.146;2023-04-24T10:13:28;10.20;99.90
5226;DHT22;2632;51.666;7.146;2023-04-24T10:15:56;10.20;99.90
5226;DHT22;2632;51.666;7.146;2023-04-24T10:18:25;10.30;99.90
5226;DHT22;2632;51.666;7.146;2023-04-24T10:20:53;10.20;99.90
5226;DHT22;2632;51.666;7.146;2023-04-24T10:23:21;10.20;99.90
5226;DHT22;2632;51.666;7.146;2023-04-24T10:25:50;10.40;99.90
5226;DHT22;2632;51.666;7.146;2023-04-24T10:28:18;10.30;99.90
5226;DHT22;2632;51.666;7.146;2023-04-24T10:30:45;10.40;99.90
5226;DHT22;2632;51.666;7.146;2023-04-24T10:33:13;10.40;99.90
5226;DHT22;2632;51.666;7.146;2023-04-24T10:35:45;10.30;99.90
5226;DHT22;2632;51.666;7.146;2023-04-24T10:38:21;10.20;99.90
5226;DHT22;2632;51.666;7.146;2023-04-24T10:40:50;10.10;99.90
5226;DHT22;2632;51.666;7.146;2023-04-24T10:43:18;10.20;99.90
5226;DHT22;2632;51.666;7.146;2023-04-24T10:46:05;10.20;99.90
5226;DHT22;2632;51.666;7.146;2023-04-24T10:48:33;10.20;99.90
5226;DHT22;2632;51.666;7.146;2023-04-24T10:51:00;10.30;99.90
5226;DHT22;2632;51.666;7.146;2023-04-24T10:53:29;10.40;99.90
5226;DHT22;2632;51.666;7.146;2023-04-24T10:56:06;10.40;99.90
5226;DHT22;2632;51.666;7.146;2023-04-24T10:58:44;10.40;99.90
5226;DHT22;2632;51.666;7.146;2023-04-24T11:01:29;10.60;99.90
5226;DHT22;2632;51.666;7.146;2023-04-24T11:03:58;10.80;99.90
5226;DHT22;2632;51.666;7.146;2023-04-24T11:06:33;10.70;99.90
5226;DHT22;2632;51.666;7.146;2023-04-24T11:09:06;10.50;99.90
5226;DHT22;2632;51.666;7.146;2023-04-24T11:11:35;10.50;99.90
5226;DHT22;2632;51.666;7.146;2023-04-24T11:14:03;10.50;99.90
5226;DHT22;2632;51.666;7.146;2023-04-24T11:16:43;10.50;99.90
5226;DHT22;2632;51.666;7.146;2023-04-24T11:21:45;10.40;99.90
5226;DHT22;2632;51.666;7.146;2023-04-24T11:24:25;10.30;99.90
5226;DHT22;2632;51.666;7.146;2023-04-24T11:27:00;10.30;99.90
5226;DHT22;2632;51.666;7.146;2023-04-24T11:32:28;10.30;99.90
5226;DHT22;2632;51.666;7.146;2023-04-24T11:35:13;10.40;99.90
5226;DHT22;2632;51.666;7.146;2023-04-24T11:37:43;10.60;99.90
5226;DHT22;2632;51.666;7.146;2023-04-24T11:40:13;10.90;99.90
5226;DHT22;2632;51.666;7.146;2023-04-24T11:42:48;11.10;99.90
5226;DHT22;2632;51.666;7.146;2023-04-24T11:45:23;11.20;99.90
5226;DHT22;2632;51.666;7.146;2023-04-24T11:47:50;11.30;99.90
5226;DHT22;2632;51.666;7.146;2023-04-24T11:50:19;11.40;99.90
5226;DHT22;2632;51.666;7.146;2023-04-24T11:52:47;11.40;99.90
5226;DHT22;2632;51.666;7.146;2023-04-24T11:57:45;11.40;99.90
5226;DHT22;2632;51.666;7.146;2023-04-24T12:00:17;11.50;99.90
5226;DHT22;2632;51.666;7.146;2023-04-24T12:02:46;11.60;99.90
5226;DHT22;2632;51.666;7.146;2023-04-24T12:05:20;11.80;99.90
5226;DHT22;2632;51.666;7.146;2023-04-24T12:07:48;12.00;99.90
5226;DHT22;2632;51.666;7.146;2023-04-24T12:10:20;12.00;99.90
5226;DHT22;2632;51.666;7.146;2023-04-24T12:12:47;11.80;99.90
5226;DHT22;2632;51.666;7.146;2023-04-24T12:15:16;11.80;99.90
5226;DHT22;2632;51.666;7.146;2023-04-24T12:17:43;11.70;99.90
5226;DHT22;2632;51.666;7.146;2023-04-24T12:20:10;11.70;99.90
5226;DHT22;2632;51.666;7.146;2023-04-24T12:22:54;11.50;99.90
5226;DHT22;2632;51.666;7.146;2023-04-24T12:25:29;11.40;99.90
5226;DHT22;2632;51.666;7.146;2023-04-24T12:28:09;11.30;99.90
5226;DHT22;2632;51.666;7.146;2023-04-24T12:30:44;11.40;99.90
5226;DHT22;2632;51.666;7.146;2023-04-24T12:33:11;11.60;99.90
5226;DHT22;2632;51.666;7.146;2023-04-24T12:35:40;11.60;99.90
5226;DHT22;2632;51.666;7.146;2023-04-24T12:38:12;11.70;99.90
5226;DHT22;2632;51.666;7.146;2023-04-24T12:40:40;11.60;99.90
5226;DHT22;2632;51.666;7.146;2023-04-24T12:43:18;11.40;99.90
5226;DHT22;2632;51.666;7.146;2023-04-24T12:45:47;11.50;99.90
5226;DHT22;2632;51.666;7.146;2023-04-24T12:48:17;11.30;99.90
5226;DHT22;2632;51.666;7.146;2023-04-24T12:50:44;11.30;99.90
5226;DHT22;2632;51.666;7.146;2023-04-24T12:53:13;11.30;99.90
5226;DHT22;2632;51.666;7.146;2023-04-24T12:55:40;11.30;99.90
5226;DHT22;2632;51.666;7.146;2023-04-24T12:58:07;11.40;99.90
5226;DHT22;2632;51.666;7.146;2023-04-24T13:00:34;11.60;99.90
5226;DHT22;2632;51.666;7.146;2023-04-24T13:03:00;11.50;99.90
5226;DHT22;2632;51.666;7.146;2023-04-24T13:05:28;11.50;99.90
5226;DHT22;2632;51.666;7.146;2023-04-24T13:07:56;11.60;99.90
5226;DHT22;2632;51.666;7.146;2023-04-24T13:10:23;11.80;99.90
5226;DHT22;2632;51.666;7.146;2023-04-24T13:12:49;12.20;99.90
5226;DHT22;2632;51.666;7.146;2023-04-24T13:15:16;12.30;99.90
5226;DHT22;2632;51.666;7.146;2023-04-24T13:17:43;12.40;99.90
5226;DHT22;2632;51.666;7.146;2023-04-24T13:20:10;12.50;99.90
5226;DHT22;2632;51.666;7.146;2023-04-24T13:22:37;12.60;99.90
5226;DHT22;2632;51.666;7.146;2023-04-24T13:25:04;12.30;99.90
5226;DHT22;2632;51.666;7.146;2023-04-24T13:27:32;11.70;99.90
5226;DHT22;2632;51.666;7.146;2023-04-24T13:29:59;11.50;99.90
5226;DHT22;2632;51.666;7.146;2023-04-24T13:32:25;11.40;99.90
5226;DHT22;2632;51.666;7.146;2023-04-24T13:34:53;11.20;99.90
5226;DHT22;2632;51.666;7.146;2023-04-24T13:37:19;11.20;99.90
5226;DHT22;2632;51.666;7.146;2023-04-24T13:39:46;11.30;99.90
5226;DHT22;2632;51.666;7.146;2023-04-24T13:42:13;11.30;99.90
5226;DHT22;2632;51.666;7.146;2023-04-24T13:44:40;11.70;99.90
5226;DHT22;2632;51.666;7.146;2023-04-24T13:47:06;11.80;99.90
5226;DHT22;2632;51.666;7.146;2023-04-24T13:49:33;12.20;99.90
5226;DHT22;2632;51.666;7.146;2023-04-24T13:51:59;12.80;99.90
5226;DHT22;2632;51.666;7.146;2023-04-24T13:54:26;14.10;98.70
5226;DHT22;2632;51.666;7.146;2023-04-24T13:56:53;14.20;95.80
5226;DHT22;2632;51.666;7.146;2023-04-24T13:59:20;13.60;96.00
5226;DHT22;2632;51.666;7.146;2023-04-24T14:01:48;13.30;96.20
5226;DHT22;2632;51.666;7.146;2023-04-24T14:04:15;12.90;97.20
5226;DHT22;2632;51.666;7.146;2023-04-24T14:06:42;12.40;97.20
5226;DHT22;2632;51.666;7.146;2023-04-24T14:09:09;12.20;98.70
5226;DHT22;2632;51.666;7.146;2023-04-24T14:11:36;12.10;98.70
5226;DHT22;2632;51.666;7.146;2023-04-24T14:14:03;12.00;99.30
5226;DHT22;2632;51.666;7.146;2023-04-24T14:16:30;12.10;99.10
5226;DHT22;2632;51.666;7.146;2023-04-24T14:18:57;12.40;99.10
5226;DHT22;2632;51.666;7.146;2023-04-24T14:21:24;12.50;98.90
5226;DHT22;2632;51.666;7.146;2023-04-24T14:23:51;12.80;99.10
5226;DHT22;2632;51.666;7.146;2023-04-24T14:26:19;12.80;97.90
5226;DHT22;2632;51.666;7.146;2023-04-24T14:28:46;12.60;98.20
5226;DHT22;2632;51.666;7.146;2023-04-24T14:31:12;12.60;98.10
5226;DHT22;2632;51.666;7.146;2023-04-24T14:33:39;12.30;99.30
5226;DHT22;2632;51.666;7.146;2023-04-24T14:36:06;12.10;99.90
5226;DHT22;2632;51.666;7.146;2023-04-24T14:38:32;12.00;99.90
5226;DHT22;2632;51.666;7.146;2023-04-24T14:40:59;11.70;99.90
5226;DHT22;2632;51.666;7.146;2023-04-24T14:43:29;11.70;99.90
5226;DHT22;2632;51.666;7.146;2023-04-24T14:45:55;11.60;99.90
5226;DHT22;2632;51.666;7.146;2023-04-24T14:48:22;12.10;99.90
5226;DHT22;2632;51.666;7.146;2023-04-24T14:50:48;12.60;99.90
5226;DHT22;2632;51.666;7.146;2023-04-24T14:53:15;12.80;99.90
5226;DHT22;2632;51.666;7.146;2023-04-24T14:55:42;13.10;99.90
5226;DHT22;2632;51.666;7.146;2023-04-24T14:58:09;13.00;99.90
5226;DHT22;2632;51.666;7.146;2023-04-24T15:00:36;13.20;99.90
5226;DHT22;2632;51.666;7.146;2023-04-24T15:03:02;13.80;99.90
5226;DHT22;2632;51.666;7.146;2023-04-24T15:05:30;13.40;99.10
5226;DHT22;2632;51.666;7.146;2023-04-24T15:07:57;13.00;99.90
5226;DHT22;2632;51.666;7.146;2023-04-24T15:10:23;12.90;99.90
5226;DHT22;2632;51.666;7.146;2023-04-24T15:12:51;12.70;99.90
5226;DHT22;2632;51.666;7.146;2023-04-24T15:15:18;12.50;99.90
5226;DHT22;2632;51.666;7.146;2023-04-24T15:17:44;12.20;99.90
5226;DHT22;2632;51.666;7.146;2023-04-24T15:20:11;12.10;99.90
5226;DHT22;2632;51.666;7.146;2023-04-24T15:22:38;12.00;99.90
5226;DHT22;2632;51.666;7.146;2023-04-24T15:25:05;12.10;99.90
5226;DHT22;2632;51.666;7.146;2023-04-24T15:27:45;12.20;99.90
5226;DHT22;2632;51.666;7.146;2023-04-24T15:30:12;12.10;99.90
5226;DHT22;2632;51.666;7.146;2023-04-24T15:32:39;12.10;99.90
5226;DHT22;2632;51.666;7.146;2023-04-24T15:35:07;12.10;99.90
5226;DHT22;2632;51.666;7.146;2023-04-24T15:37:36;12.10;99.90
5226;DHT22;2632;51.666;7.146;2023-04-24T15:40:03;12.00;99.90
5226;DHT22;2632;51.666;7.146;2023-04-24T15:42:32;11.90;99.80
5226;DHT22;2632;51.666;7.146;2023-04-24T15:44:58;11.70;99.90
5226;DHT22;2632;51.666;7.146;2023-04-24T15:47:25;11.50;99.90
5226;DHT22;2632;51.666;7.146;2023-04-24T15:49:52;11.40;99.90
5226;DHT22;2632;51.666;7.146;2023-04-24T15:52:20;11.20;99.90
5226;DHT22;2632;51.666;7.146;2023-04-24T15:54:47;11.10;99.90
5226;DHT22;2632;51.666;7.146;2023-04-24T15:57:14;10.90;99.90
5226;DHT22;2632;51.666;7.146;2023-04-24T15:59:41;10.70;99.90
5226;DHT22;2632;51.666;7.146;2023-04-24T16:02:12;10.70;99.90
5226;DHT22;2632;51.666;7.146;2023-04-24T16:04:49;10.50;99.90
5226;DHT22;2632;51.666;7.146;2023-04-24T16:07:16;10.50;99.90
5226;DHT22;2632;51.666;7.146;2023-04-24T16:09:46;10.60;99.90
5226;DHT22;2632;51.666;7.146;2023-04-24T16:12:12;10.70;99.90
5226;DHT22;2632;51.666;7.146;2023-04-24T16:14:40;11.00;99.90
5226;DHT22;2632;51.666;7.146;2023-04-24T16:17:07;11.30;99.90